createdAt,value
2018-03-08T00:01:56.145Z,34.93
2018-03-08T00:04:22.645Z,35.40
2018-03-08T00:06:49.459Z,35.50
2018-03-08T00:09:16.005Z,37.60
2018-03-08T00:11:43.138Z,27.10
2018-03-08T00:14:10.027Z,34.37
2018-03-08T00:16:36.949Z,28.93
2018-03-08T00:19:04.362Z,29.23
2018-03-08T00:21:31.645Z,26.47
2018-03-08T00:23:59.813Z,28.60
2018-03-08T00:26:26.349Z,23.50
2018-03-08T00:28:54.038Z,26.40
2018-03-08T00:31:21.343Z,30.10
2018-03-08T00:33:47.832Z,27.33
2018-03-08T00:36:14.383Z,28.07
2018-03-08T00:38:40.920Z,27.70
2018-03-08T00:41:08.960Z,30.27
2018-03-08T00:43:35.987Z,27.47
2018-03-08T00:46:02.540Z,28.90
2018-03-08T00:48:29.026Z,31.87
2018-03-08T00:50:55.590Z,28.37
2018-03-08T00:53:22.890Z,26.27
2018-03-08T00:55:49.457Z,26.17
2018-03-08T00:58:17.167Z,27.83
2018-03-08T01:00:44.111Z,25.50
2018-03-08T01:03:10.979Z,26.97
2018-03-08T01:05:38.277Z,31.10
2018-03-08T01:08:05.190Z,31.70
2018-03-08T01:10:32.017Z,30.70
2018-03-08T01:12:58.963Z,30.60
2018-03-08T01:15:26.372Z,27.50
2018-03-08T01:17:52.920Z,28.47
2018-03-08T01:20:19.794Z,23.90
2018-03-08T01:22:47.437Z,18.00
2018-03-08T01:25:15.225Z,21.23
2018-03-08T01:27:41.758Z,23.33
2018-03-08T01:30:08.631Z,24.77
2018-03-08T01:32:35.452Z,26.77
2018-03-08T01:35:02.014Z,25.67
2018-03-08T01:37:28.705Z,28.40
2018-03-08T01:39:56.219Z,29.17
2018-03-08T01:42:22.987Z,29.20
2018-03-08T01:44:49.993Z,24.87
2018-03-08T01:47:16.699Z,26.53
2018-03-08T01:49:44.538Z,25.80
2018-03-08T01:52:11.463Z,25.03
2018-03-08T01:54:38.155Z,25.97
2018-03-08T01:57:05.750Z,25.83
2018-03-08T01:59:32.310Z,27.43
2018-03-08T02:01:58.903Z,27.03
2018-03-08T02:04:26.265Z,29.67
2018-03-08T02:06:52.780Z,25.90
2018-03-08T02:09:20.830Z,23.97
2018-03-08T02:11:47.445Z,25.03
2018-03-08T02:14:14.022Z,27.87
2018-03-08T02:16:40.593Z,28.13
2018-03-08T02:19:08.185Z,28.40
2018-03-08T02:21:34.725Z,26.73
2018-03-08T02:24:01.150Z,28.73
2018-03-08T02:26:28.467Z,31.33
2018-03-08T02:28:55.346Z,29.87
2018-03-08T02:31:22.613Z,32.07
2018-03-08T02:33:50.573Z,30.37
2018-03-08T02:36:17.413Z,29.17
2018-03-08T02:38:43.948Z,27.07
2018-03-08T02:41:11.856Z,29.30
2018-03-08T02:43:39.109Z,27.70
2018-03-08T02:46:05.634Z,27.83
2018-03-08T02:48:32.229Z,25.93
2018-03-08T02:50:58.855Z,26.67
2018-03-08T02:53:26.090Z,28.90
2018-03-08T02:55:52.892Z,25.93
2018-03-08T02:58:19.776Z,27.40
2018-03-08T03:00:46.347Z,28.67
2018-03-08T03:03:12.916Z,29.97
2018-03-08T03:05:40.285Z,29.23
2018-03-08T03:08:07.645Z,30.57
2018-03-08T03:10:34.382Z,31.03
2018-03-08T03:13:01.641Z,29.40
2018-03-08T03:15:29.682Z,31.67
2018-03-08T03:17:56.785Z,30.60
2018-03-08T03:20:24.798Z,29.77
2018-03-08T03:22:51.731Z,29.30
2018-03-08T03:25:19.384Z,32.70
2018-03-08T03:27:46.666Z,31.70
2018-03-08T03:30:13.161Z,30.93
2018-03-08T03:32:39.716Z,27.97
2018-03-08T03:35:06.312Z,33.33
2018-03-08T03:37:33.132Z,30.40
2018-03-08T03:40:00.881Z,29.37
2018-03-08T03:42:27.409Z,33.40
2018-03-08T03:44:53.952Z,32.90
2018-03-08T03:47:22.337Z,31.27
2018-03-08T03:49:48.969Z,33.07
2018-03-08T03:52:15.504Z,33.00
2018-03-08T03:54:42.117Z,31.57
2018-03-08T03:57:08.582Z,32.67
2018-03-08T03:59:35.454Z,32.10
2018-03-08T04:02:02.946Z,32.90
2018-03-08T04:04:29.889Z,30.70
2018-03-08T04:06:57.110Z,28.63
2018-03-08T04:09:23.672Z,30.57
2018-03-08T04:11:50.187Z,30.47
2018-03-08T04:14:16.836Z,34.57
2018-03-08T04:16:44.680Z,33.53
2018-03-08T04:19:21.614Z,31.63
2018-03-08T04:21:49.688Z,28.80
2018-03-08T04:24:16.126Z,31.30
2018-03-08T04:26:42.976Z,31.40
2018-03-08T04:29:09.513Z,30.37
2018-03-08T04:31:37.739Z,31.73
2018-03-08T04:34:04.285Z,28.90
2018-03-08T04:36:31.411Z,31.53
2018-03-08T04:38:58.386Z,31.37
2018-03-08T04:41:24.921Z,31.57
2018-03-08T04:43:52.884Z,31.10
2018-03-08T04:46:20.552Z,32.33
2018-03-08T04:48:47.021Z,30.90
2018-03-08T04:51:13.834Z,31.67
2018-03-08T04:53:41.845Z,26.80
2018-03-08T04:56:10.081Z,34.23
2018-03-08T04:58:37.179Z,34.47
2018-03-08T05:01:03.767Z,34.60
2018-03-08T05:03:30.662Z,35.93
2018-03-08T05:05:58.865Z,31.73
2018-03-08T05:08:25.477Z,35.37
2018-03-08T05:10:53.125Z,34.63
2018-03-08T05:13:20.387Z,35.20
2018-03-08T05:15:46.956Z,36.23
2018-03-08T05:18:13.643Z,34.77
2018-03-08T05:20:40.222Z,35.10
2018-03-08T05:23:06.700Z,34.73
2018-03-08T05:25:34.219Z,38.70
2018-03-08T05:28:01.389Z,37.00
2018-03-08T05:30:28.456Z,37.47
2018-03-08T05:32:55.756Z,33.40
2018-03-08T05:35:22.967Z,32.63
2018-03-08T05:37:50.804Z,37.00
2018-03-08T05:40:19.093Z,37.37
2018-03-08T05:42:46.355Z,41.07
2018-03-08T05:45:12.968Z,36.30
2018-03-08T05:47:39.520Z,39.60
2018-03-08T05:50:07.928Z,39.27
2018-03-08T05:52:36.358Z,35.57
2018-03-08T05:55:03.330Z,37.33
2018-03-08T05:57:31.577Z,37.33
2018-03-08T05:59:58.243Z,39.03
2018-03-08T06:02:25.388Z,36.47
2018-03-08T06:04:56.147Z,35.47
2018-03-08T06:07:22.705Z,36.07
2018-03-08T06:09:50.957Z,35.03
2018-03-08T06:12:18.830Z,38.20
2018-03-08T06:14:45.507Z,36.10
2018-03-08T06:17:12.762Z,37.60
2018-03-08T06:19:39.731Z,36.27
2018-03-08T06:22:07.000Z,36.57
2018-03-08T06:24:34.640Z,35.50
2018-03-08T06:27:01.641Z,33.57
2018-03-08T06:29:28.685Z,35.40
2018-03-08T06:31:55.643Z,33.43
2018-03-08T06:34:22.397Z,32.20
2018-03-08T06:36:49.237Z,40.17
2018-03-08T06:39:16.119Z,36.60
2018-03-08T06:41:43.689Z,36.90
2018-03-08T06:44:11.222Z,32.37
2018-03-08T06:46:37.805Z,35.47
2018-03-08T06:49:05.492Z,36.07
2018-03-08T06:51:32.029Z,34.30
2018-03-08T06:53:59.773Z,33.50
2018-03-08T06:56:26.998Z,32.80
2018-03-08T06:58:53.838Z,29.87
2018-03-08T07:01:20.786Z,29.10
2018-03-08T07:03:47.293Z,33.20
2018-03-08T07:06:13.982Z,32.10
2018-03-08T07:08:40.449Z,27.93
2018-03-08T07:11:07.416Z,32.50
2018-03-08T07:13:34.391Z,36.30
2018-03-08T07:16:01.671Z,35.90
2018-03-08T07:18:32.331Z,31.40
2018-03-08T07:20:59.774Z,31.37
2018-03-08T07:23:28.185Z,27.57
2018-03-08T07:25:55.549Z,31.10
2018-03-08T07:28:22.468Z,27.20
2018-03-08T07:30:49.301Z,26.33
2018-03-08T07:33:15.782Z,31.53
2018-03-08T07:35:42.625Z,29.43
2018-03-08T07:38:09.109Z,33.30
2018-03-08T07:40:37.458Z,27.20
2018-03-08T07:43:05.423Z,26.57
2018-03-08T07:45:32.600Z,28.50
2018-03-08T07:47:59.900Z,30.00
2018-03-08T07:50:27.421Z,28.20
2018-03-08T07:52:55.599Z,27.30
2018-03-08T07:55:22.892Z,27.80
2018-03-08T07:57:50.024Z,25.93
2018-03-08T08:00:16.499Z,29.57
2018-03-08T08:02:44.668Z,27.60
2018-03-08T08:05:23.330Z,29.30
2018-03-08T08:08:02.086Z,25.67
2018-03-08T08:10:28.773Z,25.27
2018-03-08T08:12:55.422Z,25.60
2018-03-08T08:15:23.112Z,29.33
2018-03-08T08:17:51.299Z,33.43
2018-03-08T08:20:17.899Z,28.20
2018-03-08T08:22:45.703Z,29.00
2018-03-08T08:25:13.393Z,27.37
2018-03-08T08:27:39.893Z,28.67
2018-03-08T08:30:07.225Z,25.83
2018-03-08T08:32:34.360Z,27.50
2018-03-08T08:35:01.781Z,32.67
2018-03-08T08:37:30.124Z,31.93
2018-03-08T08:39:56.728Z,28.80
2018-03-08T08:42:24.661Z,26.37
2018-03-08T08:44:52.110Z,27.47
2018-03-08T08:47:19.419Z,28.93
2018-03-08T08:49:45.991Z,27.80
2018-03-08T08:52:13.570Z,26.70
2018-03-08T08:54:41.696Z,26.83
2018-03-08T08:57:08.257Z,28.07
2018-03-08T08:59:35.928Z,29.30
2018-03-08T09:02:03.583Z,27.63
2018-03-08T09:04:31.699Z,26.80
2018-03-08T09:06:58.905Z,26.63
2018-03-08T09:09:25.427Z,25.57
2018-03-08T09:11:52.987Z,24.20
2018-03-08T09:14:21.134Z,27.33
2018-03-08T09:16:47.638Z,26.13
2018-03-08T09:19:14.145Z,26.50
2018-03-08T09:21:42.123Z,29.10
2018-03-08T09:24:08.673Z,26.17
2018-03-08T09:26:36.002Z,27.33
2018-03-08T09:29:03.295Z,27.10
2018-03-08T09:31:30.956Z,23.17
2018-03-08T09:33:57.867Z,24.57
2018-03-08T09:36:24.407Z,23.60
2018-03-08T09:38:52.848Z,29.47
2018-03-08T09:41:19.409Z,25.43
2018-03-08T09:43:46.460Z,26.97
2018-03-08T09:46:19.724Z,27.10
2018-03-08T09:48:47.263Z,34.80
2018-03-08T09:51:14.056Z,34.10
2018-03-08T09:53:40.663Z,27.97
2018-03-08T09:56:07.276Z,31.97
2018-03-08T09:58:33.832Z,31.80
2018-03-08T10:01:01.219Z,32.80
2018-03-08T10:03:27.782Z,33.47
2018-03-08T10:05:55.145Z,37.00
2018-03-08T10:08:21.743Z,30.43
2018-03-08T10:10:48.722Z,37.07
2018-03-08T10:13:15.262Z,28.00
2018-03-08T10:15:42.081Z,31.10
2018-03-08T10:18:08.970Z,36.97
2018-03-08T10:20:36.393Z,32.80
2018-03-08T10:23:03.909Z,34.80
2018-03-08T10:25:30.576Z,35.40
2018-03-08T10:27:57.145Z,34.23
2018-03-08T10:30:24.449Z,38.80
2018-03-08T10:32:53.175Z,29.20
2018-03-08T10:35:21.427Z,37.97
2018-03-08T10:37:48.417Z,37.63
2018-03-08T10:40:14.900Z,33.13
2018-03-08T10:45:08.703Z,42.07
2018-03-08T10:47:36.306Z,34.50
2018-03-08T10:50:03.246Z,39.83
2018-03-08T10:52:30.852Z,35.27
2018-03-08T10:54:57.925Z,38.83
2018-03-08T10:57:24.445Z,35.67
2018-03-08T10:59:50.852Z,33.50
2018-03-08T11:02:23.876Z,41.87
2018-03-08T11:04:57.967Z,32.30
2018-03-08T11:07:31.953Z,41.10
2018-03-08T11:09:59.112Z,39.73
2018-03-08T11:12:26.495Z,38.90
2018-03-08T11:14:54.599Z,40.03
2018-03-08T11:17:23.207Z,37.43
2018-03-08T11:19:51.152Z,39.63
2018-03-08T11:22:18.090Z,33.20
2018-03-08T11:24:44.718Z,30.33
2018-03-08T11:27:13.140Z,28.00
2018-03-08T11:29:41.368Z,26.83
2018-03-08T11:32:08.067Z,19.33
2018-03-08T11:34:35.512Z,34.97
2018-03-08T11:37:03.499Z,28.20
2018-03-08T11:39:31.484Z,33.70
2018-03-08T11:41:59.705Z,35.27
2018-03-08T11:44:27.144Z,29.20
2018-03-08T11:46:53.672Z,27.60
2018-03-08T11:49:21.803Z,32.00
2018-03-08T11:51:48.668Z,30.50
2018-03-08T11:54:16.266Z,16.50
2018-03-08T11:56:42.495Z,19.33
2018-03-08T11:59:09.368Z,33.50
2018-03-08T12:01:38.300Z,27.10
2018-03-08T12:04:06.094Z,20.37
2018-03-08T12:06:33.058Z,28.13
2018-03-08T12:09:01.272Z,29.33
2018-03-08T12:11:28.562Z,27.37
2018-03-08T12:13:55.053Z,25.47
2018-03-08T12:16:21.503Z,20.60
2018-03-08T12:18:48.026Z,24.10
2018-03-08T12:21:14.844Z,25.10
2018-03-08T12:23:41.881Z,22.50
2018-03-08T12:26:08.750Z,27.60
2018-03-08T12:28:35.587Z,23.73
2018-03-08T12:31:02.101Z,23.07
2018-03-08T12:33:29.356Z,25.00
2018-03-08T12:35:56.788Z,22.87
2018-03-08T12:38:25.129Z,23.93
2018-03-08T12:40:51.561Z,20.90
2018-03-08T12:43:18.108Z,27.53
2018-03-08T12:45:45.716Z,26.20
2018-03-08T12:48:12.520Z,22.57
2018-03-08T12:50:39.541Z,24.40
2018-03-08T12:53:07.225Z,26.97
2018-03-08T12:55:35.425Z,24.30
2018-03-08T12:58:04.392Z,24.43
2018-03-08T13:00:32.341Z,20.63
2018-03-08T13:02:59.358Z,19.60
2018-03-08T13:05:26.689Z,23.20
2018-03-08T13:07:54.879Z,25.20
2018-03-08T13:10:29.188Z,29.30
2018-03-08T13:12:55.615Z,25.53
2018-03-08T13:15:23.650Z,24.03
2018-03-08T13:17:52.838Z,25.53
2018-03-08T13:20:19.700Z,25.07
2018-03-08T13:22:47.206Z,26.20
2018-03-08T13:25:14.070Z,26.23
2018-03-08T13:27:40.533Z,21.93
2018-03-08T13:30:08.742Z,23.13
2018-03-08T13:32:35.421Z,25.40
2018-03-08T13:35:03.884Z,22.87
2018-03-08T13:37:30.719Z,25.47
2018-03-08T13:39:57.825Z,26.60
2018-03-08T13:42:24.358Z,24.93
2018-03-08T13:45:10.164Z,23.97
2018-03-08T13:47:36.945Z,26.47
2018-03-08T13:50:05.114Z,25.17
2018-03-08T13:52:32.187Z,24.43
2018-03-08T13:54:59.609Z,23.50
2018-03-08T13:57:26.262Z,23.47
2018-03-08T13:59:54.010Z,23.80
2018-03-08T14:02:23.141Z,26.07
2018-03-08T14:04:50.014Z,26.87
2018-03-08T14:07:17.117Z,24.03
2018-03-08T14:09:43.930Z,27.43
2018-03-08T14:12:11.245Z,22.80
2018-03-08T14:14:38.665Z,23.63
2018-03-08T14:17:05.309Z,26.90
2018-03-08T14:19:31.862Z,27.17
2018-03-08T14:21:59.471Z,25.00
2018-03-08T14:24:26.032Z,25.67
2018-03-08T14:26:52.485Z,21.57
2018-03-08T14:29:21.788Z,21.33
2018-03-08T14:31:49.114Z,21.47
2018-03-08T14:34:16.335Z,19.87
2018-03-08T14:36:44.601Z,19.83
2018-03-08T14:39:12.709Z,22.03
2018-03-08T14:41:40.258Z,19.73
2018-03-08T14:44:06.905Z,20.10
2018-03-08T14:46:34.083Z,17.60
2018-03-08T14:49:00.734Z,20.30
2018-03-08T14:51:27.839Z,17.40
2018-03-08T14:53:56.540Z,18.87
2018-03-08T14:56:23.092Z,18.10
2018-03-08T14:58:51.855Z,16.37
2018-03-08T15:01:18.770Z,16.43
2018-03-08T15:03:46.340Z,18.50
2018-03-08T15:06:14.017Z,18.37
2018-03-08T15:08:41.468Z,16.87
2018-03-08T15:11:08.163Z,20.17
2018-03-08T15:13:35.835Z,18.90
2018-03-08T15:16:03.884Z,19.60
2018-03-08T15:18:32.201Z,18.60
2018-03-08T15:21:00.552Z,20.13
2018-03-08T15:23:28.494Z,17.37
2018-03-08T15:25:55.374Z,19.00
2018-03-08T15:28:23.502Z,18.40
2018-03-08T15:30:50.203Z,19.00
2018-03-08T15:33:19.634Z,19.63
2018-03-08T15:35:47.238Z,19.90
2018-03-08T15:38:15.368Z,19.03
2018-03-08T15:40:42.217Z,19.93
2018-03-08T15:43:10.361Z,18.00
2018-03-08T15:45:36.749Z,20.43
2018-03-08T15:48:04.290Z,18.97
2018-03-08T15:50:30.641Z,20.47
2018-03-08T15:53:00.812Z,19.80
2018-03-08T15:55:28.016Z,18.87
2018-03-08T15:57:56.087Z,18.90
2018-03-08T16:00:24.664Z,19.33
2018-03-08T16:02:51.930Z,20.07
2018-03-08T16:05:20.195Z,17.87
2018-03-08T16:07:59.529Z,18.80
2018-03-08T16:10:35.895Z,18.77
2018-03-08T16:13:03.218Z,20.10
2018-03-08T16:15:30.122Z,20.43
2018-03-08T16:17:56.858Z,19.37
2018-03-08T16:20:25.291Z,20.57
2018-03-08T16:22:52.545Z,20.37
2018-03-08T16:25:21.444Z,18.87
2018-03-08T16:27:49.495Z,21.13
2018-03-08T16:30:16.009Z,20.40
2018-03-08T16:32:43.147Z,23.90
2018-03-08T16:35:12.119Z,23.20
2018-03-08T16:37:38.994Z,23.00
2018-03-08T16:40:11.360Z,23.10
2018-03-08T16:42:37.900Z,23.27
2018-03-08T16:45:04.333Z,23.50
2018-03-08T16:47:31.562Z,25.73
2018-03-08T16:49:58.261Z,24.43
2018-03-08T16:52:24.718Z,26.20
2018-03-08T16:54:52.285Z,25.27
2018-03-08T16:57:19.858Z,25.40
2018-03-08T16:59:46.631Z,27.17
2018-03-08T17:02:14.182Z,25.67
2018-03-08T17:04:42.319Z,24.10
2018-03-08T17:07:10.369Z,26.17
2018-03-08T17:09:38.298Z,27.00
2018-03-08T17:12:05.697Z,27.63
2018-03-08T17:14:34.269Z,27.80
2018-03-08T17:17:00.767Z,26.77
2018-03-08T17:19:27.616Z,25.53
2018-03-08T17:21:55.837Z,27.83
2018-03-08T17:24:22.629Z,27.20
2018-03-08T17:26:49.843Z,28.33
2018-03-08T17:29:18.191Z,30.23
2018-03-08T17:31:46.152Z,31.30
2018-03-08T17:34:16.842Z,29.83
2018-03-08T17:36:44.591Z,28.07
2018-03-08T17:39:11.562Z,29.57
2018-03-08T17:41:38.922Z,30.50
2018-03-08T17:44:07.458Z,29.20
2018-03-08T17:46:34.202Z,28.47
2018-03-08T17:49:02.532Z,28.50
2018-03-08T17:51:29.365Z,28.10
2018-03-08T17:53:56.622Z,28.87
2018-03-08T17:56:23.463Z,26.87
2018-03-08T17:58:50.970Z,27.40
2018-03-08T18:01:18.376Z,27.50
2018-03-08T18:03:44.847Z,27.83
2018-03-08T18:06:11.390Z,26.63
2018-03-08T18:08:37.833Z,28.90
2018-03-08T18:11:04.615Z,28.97
2018-03-08T18:13:31.828Z,26.80
2018-03-08T18:15:58.999Z,30.23
2018-03-08T18:18:25.496Z,27.07
2018-03-08T18:20:53.047Z,28.00
2018-03-08T18:23:20.464Z,28.60
2018-03-08T18:25:46.916Z,27.87
2018-03-08T18:28:14.094Z,26.87
2018-03-08T18:30:40.532Z,27.73
2018-03-08T18:33:07.487Z,28.30
2018-03-08T18:35:34.996Z,27.17
2018-03-08T18:38:02.297Z,26.10
2018-03-08T18:40:29.591Z,25.13
2018-03-08T18:42:56.293Z,25.77
2018-03-08T18:45:22.630Z,24.90
2018-03-08T18:47:49.114Z,23.50
2018-03-08T18:50:16.362Z,23.70
2018-03-08T18:52:43.584Z,22.77
2018-03-08T18:55:16.826Z,20.93
2018-03-08T18:57:44.910Z,20.90
2018-03-08T19:00:12.123Z,18.10
2018-03-08T19:02:39.684Z,19.07
2018-03-08T19:05:08.241Z,19.70
2018-03-08T19:07:44.133Z,18.43
2018-03-08T19:10:11.008Z,19.27
2018-03-08T19:12:38.373Z,18.00
2018-03-08T19:15:05.520Z,16.03
2018-03-08T19:17:32.700Z,17.60
2018-03-08T19:19:59.175Z,14.63
2018-03-08T19:22:25.640Z,15.80
2018-03-08T19:24:52.189Z,14.97
2018-03-08T19:27:18.706Z,13.40
2018-03-08T19:29:45.260Z,13.20
2018-03-08T19:32:14.490Z,10.37
2018-03-08T19:34:41.913Z,12.20
2018-03-08T19:37:09.553Z,11.70
2018-03-08T19:39:35.992Z,11.13
2018-03-08T19:42:02.432Z,10.60
2018-03-08T19:44:30.167Z,9.67
2018-03-08T19:46:59.457Z,12.07
2018-03-08T19:49:27.786Z,11.03
2018-03-08T19:51:55.121Z,9.80
2018-03-08T19:54:23.322Z,10.73
2018-03-08T19:56:51.540Z,12.63
2018-03-08T19:59:19.337Z,12.07
2018-03-08T20:01:47.580Z,10.70
2018-03-08T20:04:14.086Z,13.57
2018-03-08T20:06:40.644Z,12.37
2018-03-08T20:09:08.825Z,13.43
2018-03-08T20:11:36.668Z,12.27
2018-03-08T20:14:04.894Z,13.23
2018-03-08T20:16:32.414Z,11.93
2018-03-08T20:18:58.735Z,11.90
2018-03-08T20:21:25.820Z,13.73
2018-03-08T20:23:52.579Z,13.07
2018-03-08T20:26:19.126Z,12.40
2018-03-08T20:28:45.665Z,10.17
2018-03-08T20:31:13.753Z,11.33
2018-03-08T20:33:40.297Z,10.57
2018-03-08T20:36:06.795Z,11.10
2018-03-08T20:38:35.210Z,12.00
2018-03-08T20:41:03.314Z,11.90
2018-03-08T20:43:30.750Z,11.00
2018-03-08T20:45:57.126Z,12.17
2018-03-08T20:48:24.519Z,11.60
2018-03-08T20:50:51.068Z,10.93
2018-03-08T20:53:17.458Z,10.87
2018-03-08T20:55:44.304Z,11.63
2018-03-08T20:58:11.657Z,11.27
2018-03-08T21:00:38.575Z,11.40
2018-03-08T21:03:06.099Z,10.37
2018-03-08T21:05:33.054Z,10.70
2018-03-08T21:07:59.489Z,11.00
2018-03-08T21:10:27.646Z,10.53
2018-03-08T21:13:00.302Z,9.57
2018-03-08T21:15:26.752Z,10.30
2018-03-08T21:17:54.731Z,10.10
2018-03-08T21:20:24.233Z,9.27
2018-03-08T21:22:51.024Z,9.50
2018-03-08T21:25:18.908Z,10.60
2018-03-08T21:27:45.706Z,9.70
2018-03-08T21:30:13.207Z,8.33
2018-03-08T21:32:41.324Z,9.43
2018-03-08T21:35:08.510Z,8.37
2018-03-08T21:37:35.015Z,10.00
2018-03-08T21:40:01.569Z,7.83
2018-03-08T21:42:29.610Z,8.70
2018-03-08T21:44:56.556Z,8.43
2018-03-08T21:47:23.877Z,6.50
2018-03-08T21:49:50.445Z,9.53
2018-03-08T21:52:17.690Z,9.67
2018-03-08T21:54:45.350Z,10.10
2018-03-08T21:57:12.657Z,7.33
2018-03-08T21:59:39.163Z,9.60
2018-03-08T22:02:06.332Z,9.67
2018-03-08T22:04:32.939Z,8.70
2018-03-08T22:07:01.442Z,8.20
2018-03-08T22:09:28.874Z,5.10
2018-03-08T22:11:55.419Z,7.17
2018-03-08T22:14:21.830Z,7.10
2018-03-08T22:16:48.340Z,6.83
2018-03-08T22:19:14.852Z,6.30
2018-03-08T22:21:41.892Z,6.90
2018-03-08T22:24:09.908Z,7.23
2018-03-08T22:26:36.258Z,6.03
2018-03-08T22:29:02.805Z,5.53
2018-03-08T22:31:29.872Z,5.90
2018-03-08T22:33:56.587Z,4.57
2018-03-08T22:36:23.060Z,3.30
2018-03-08T22:38:49.558Z,5.13
2018-03-08T22:41:16.005Z,5.60
2018-03-08T22:43:42.492Z,5.13
2018-03-08T22:46:08.953Z,6.07
2018-03-08T22:48:36.327Z,5.73
2018-03-08T22:51:03.870Z,5.70
2018-03-08T22:53:30.990Z,6.13
2018-03-08T22:55:57.398Z,5.93
2018-03-08T22:58:23.812Z,5.57
2018-03-08T23:00:50.275Z,5.53
2018-03-08T23:03:22.586Z,5.60
2018-03-08T23:05:48.968Z,5.70
2018-03-08T23:08:15.436Z,5.30
2018-03-08T23:10:41.938Z,5.53
2018-03-08T23:13:08.314Z,5.63
2018-03-08T23:15:35.491Z,4.60
2018-03-08T23:18:01.918Z,4.70
2018-03-08T23:20:28.675Z,4.10
2018-03-08T23:22:55.121Z,5.20
2018-03-08T23:25:21.436Z,4.50
2018-03-08T23:27:48.522Z,4.33
2018-03-08T23:30:14.905Z,5.20
2018-03-08T23:32:41.338Z,4.10
2018-03-08T23:35:09.395Z,3.60
2018-03-08T23:37:35.770Z,3.77
2018-03-08T23:40:03.914Z,4.20
2018-03-08T23:42:31.052Z,3.33
2018-03-08T23:44:57.792Z,5.00
2018-03-08T23:47:24.229Z,3.67
2018-03-08T23:49:51.372Z,4.33
2018-03-08T23:52:18.085Z,4.37
2018-03-08T23:54:44.837Z,4.33
2018-03-08T23:57:11.591Z,4.03
2018-03-08T23:59:39.045Z,4.00
